sensor_id;sensor_type;location;lat;lon;timestamp;temperature;humidity
51595;DHT22;37677;53.254;6.594;2023-04-25T00:47:48;6.80;1.00
51595;DHT22;37677;53.254;6.594;2023-04-25T00:50:14;6.80;1.00
51595;DHT22;37677;53.254;6.594;2023-04-25T00:52:41;6.70;1.00
51595;DHT22;37677;53.254;6.594;2023-04-25T00:55:09;7.20;1.00
51595;DHT22;37677;53.254;6.594;2023-04-25T00:57:35;6.80;1.00
51595;DHT22;37677;53.254;6.594;2023-04-25T01:00:02;7.50;1.00
51595;DHT22;37677;53.254;6.594;2023-04-25T01:02:28;6.80;1.00
51595;DHT22;37677;53.254;6.594;2023-04-25T01:04:54;7.10;1.00
51595;DHT22;37677;53.254;6.594;2023-04-25T01:07:20;7.50;1.00
51595;DHT22;37677;53.254;6.594;2023-04-25T01:09:46;7.20;1.00
51595;DHT22;37677;53.254;6.594;2023-04-25T01:12:12;6.80;1.00
51595;DHT22;37677;53.254;6.594;2023-04-25T01:14:38;7.20;99.90
51595;DHT22;37677;53.254;6.594;2023-04-25T02:15:40;6.50;1.00
51595;DHT22;37677;53.254;6.594;2023-04-25T02:18:06;6.60;1.00
51595;DHT22;37677;53.254;6.594;2023-04-25T02:20:32;6.70;1.00
51595;DHT22;37677;53.254;6.594;2023-04-25T02:22:58;7.20;1.00
51595;DHT22;37677;53.254;6.594;2023-04-25T02:25:24;6.20;1.00
51595;DHT22;37677;53.254;6.594;2023-04-25T02:27:50;6.20;1.00
51595;DHT22;37677;53.254;6.594;2023-04-25T02:30:16;6.10;1.00
51595;DHT22;37677;53.254;6.594;2023-04-25T02:32:42;6.20;1.00
51595;DHT22;37677;53.254;6.594;2023-04-25T02:35:09;8.30;1.00
51595;DHT22;37677;53.254;6.594;2023-04-25T02:37:36;6.00;1.00
51595;DHT22;37677;53.254;6.594;2023-04-25T02:40:02;7.00;1.00
51595;DHT22;37677;53.254;6.594;2023-04-25T02:42:29;6.10;1.00
51595;DHT22;37677;53.254;6.594;2023-04-25T02:44:55;6.10;1.00
51595;DHT22;37677;53.254;6.594;2023-04-25T02:47:21;5.50;1.00
51595;DHT22;37677;53.254;6.594;2023-04-25T02:49:47;6.10;1.00
51595;DHT22;37677;53.254;6.594;2023-04-25T02:52:12;6.30;1.00
51595;DHT22;37677;53.254;6.594;2023-04-25T02:54:39;6.20;1.00
51595;DHT22;37677;53.254;6.594;2023-04-25T02:57:05;6.20;1.00
51595;DHT22;37677;53.254;6.594;2023-04-25T02:59:30;5.80;1.00
51595;DHT22;37677;53.254;6.594;2023-04-25T03:01:56;6.20;1.00
51595;DHT22;37677;53.254;6.594;2023-04-25T03:04:22;6.20;1.00
51595;DHT22;37677;53.254;6.594;2023-04-25T03:06:49;5.90;1.00
51595;DHT22;37677;53.254;6.594;2023-04-25T03:09:16;6.20;1.00
51595;DHT22;37677;53.254;6.594;2023-04-25T03:11:42;7.80;1.00
51595;DHT22;37677;53.254;6.594;2023-04-25T03:14:07;6.60;1.00
51595;DHT22;37677;53.254;6.594;2023-04-25T03:16:33;6.00;1.00
51595;DHT22;37677;53.254;6.594;2023-04-25T03:18:59;5.90;1.00
51595;DHT22;37677;53.254;6.594;2023-04-25T03:21:25;5.80;1.00
51595;DHT22;37677;53.254;6.594;2023-04-25T03:23:52;5.90;1.00
51595;DHT22;37677;53.254;6.594;2023-04-25T03:26:17;5.10;1.00
51595;DHT22;37677;53.254;6.594;2023-04-25T03:28:43;4.90;1.00
51595;DHT22;37677;53.254;6.594;2023-04-25T03:31:09;5.80;1.00
51595;DHT22;37677;53.254;6.594;2023-04-25T03:33:34;5.70;1.00
51595;DHT22;37677;53.254;6.594;2023-04-25T03:36:00;5.60;1.00
51595;DHT22;37677;53.254;6.594;2023-04-25T03:38:26;5.70;1.00
51595;DHT22;37677;53.254;6.594;2023-04-25T03:40:51;5.70;1.00
51595;DHT22;37677;53.254;6.594;2023-04-25T03:43:18;5.50;1.00
51595;DHT22;37677;53.254;6.594;2023-04-25T03:45:44;6.10;1.00
51595;DHT22;37677;53.254;6.594;2023-04-25T03:48:11;5.10;1.00
51595;DHT22;37677;53.254;6.594;2023-04-25T03:50:36;5.40;1.00
51595;DHT22;37677;53.254;6.594;2023-04-25T03:53:02;5.40;1.00
51595;DHT22;37677;53.254;6.594;2023-04-25T03:55:28;7.50;1.00
51595;DHT22;37677;53.254;6.594;2023-04-25T03:57:54;5.30;1.00
51595;DHT22;37677;53.254;6.594;2023-04-25T04:00:19;5.30;1.00
51595;DHT22;37677;53.254;6.594;2023-04-25T04:02:45;7.40;1.00
51595;DHT22;37677;53.254;6.594;2023-04-25T04:05:11;5.90;1.00
51595;DHT22;37677;53.254;6.594;2023-04-25T04:07:36;5.50;1.00
51595;DHT22;37677;53.254;6.594;2023-04-25T04:10:09;5.40;1.00
51595;DHT22;37677;53.254;6.594;2023-04-25T04:12:36;5.90;1.00
51595;DHT22;37677;53.254;6.594;2023-04-25T04:15:05;5.30;1.00
51595;DHT22;37677;53.254;6.594;2023-04-25T04:17:32;5.30;1.00
51595;DHT22;37677;53.254;6.594;2023-04-25T04:19:58;4.40;1.00
51595;DHT22;37677;53.254;6.594;2023-04-25T04:22:24;5.20;1.00
51595;DHT22;37677;53.254;6.594;2023-04-25T04:24:50;5.10;1.00
51595;DHT22;37677;53.254;6.594;2023-04-25T04:27:19;4.90;1.00
51595;DHT22;37677;53.254;6.594;2023-04-25T04:29:46;4.80;1.00
51595;DHT22;37677;53.254;6.594;2023-04-25T04:32:12;4.60;1.00
51595;DHT22;37677;53.254;6.594;2023-04-25T04:34:39;5.10;1.00
51595;DHT22;37677;53.254;6.594;2023-04-25T04:37:05;4.90;1.00
51595;DHT22;37677;53.254;6.594;2023-04-25T04:39:32;4.90;1.00
51595;DHT22;37677;53.254;6.594;2023-04-25T04:41:58;4.90;1.00
51595;DHT22;37677;53.254;6.594;2023-04-25T04:44:25;5.10;1.00
51595;DHT22;37677;53.254;6.594;2023-04-25T04:46:51;5.00;1.00
51595;DHT22;37677;53.254;6.594;2023-04-25T04:49:17;5.00;1.00
51595;DHT22;37677;53.254;6.594;2023-04-25T04:51:43;5.90;1.00
51595;DHT22;37677;53.254;6.594;2023-04-25T04:54:12;5.00;1.00
51595;DHT22;37677;53.254;6.594;2023-04-25T04:56:38;5.10;1.00
51595;DHT22;37677;53.254;6.594;2023-04-25T04:59:04;5.40;1.00
51595;DHT22;37677;53.254;6.594;2023-04-25T05:01:30;5.40;1.00
51595;DHT22;37677;53.254;6.594;2023-04-25T05:03:56;4.40;1.00
51595;DHT22;37677;53.254;6.594;2023-04-25T05:06:26;5.20;7.70
51595;DHT22;37677;53.254;6.594;2023-04-25T05:08:52;4.80;8.60
51595;DHT22;37677;53.254;6.594;2023-04-25T05:11:19;5.20;9.10
51595;DHT22;37677;53.254;6.594;2023-04-25T05:13:45;5.40;1.00
51595;DHT22;37677;53.254;6.594;2023-04-25T05:16:11;5.00;1.00
51595;DHT22;37677;53.254;6.594;2023-04-25T05:18:37;6.00;1.00
51595;DHT22;37677;53.254;6.594;2023-04-25T05:21:03;5.40;1.00
51595;DHT22;37677;53.254;6.594;2023-04-25T05:23:29;5.50;1.00
51595;DHT22;37677;53.254;6.594;2023-04-25T05:25:55;5.10;1.00
51595;DHT22;37677;53.254;6.594;2023-04-25T05:28:21;5.50;1.00
51595;DHT22;37677;53.254;6.594;2023-04-25T05:30:47;6.30;1.00
51595;DHT22;37677;53.254;6.594;2023-04-25T05:33:12;5.70;1.00
51595;DHT22;37677;53.254;6.594;2023-04-25T05:35:38;6.20;1.00
51595;DHT22;37677;53.254;6.594;2023-04-25T05:38:04;8.10;1.00
51595;DHT22;37677;53.254;6.594;2023-04-25T05:40:30;7.10;1.00
51595;DHT22;37677;53.254;6.594;2023-04-25T05:42:55;7.00;1.00
51595;DHT22;37677;53.254;6.594;2023-04-25T05:45:21;7.50;1.00
51595;DHT22;37677;53.254;6.594;2023-04-25T05:47:46;7.20;99.90
51595;DHT22;37677;53.254;6.594;2023-04-25T05:50:12;6.90;1.00
51595;DHT22;37677;53.254;6.594;2023-04-25T05:52:38;6.60;1.00
51595;DHT22;37677;53.254;6.594;2023-04-25T05:55:04;6.50;1.00
51595;DHT22;37677;53.254;6.594;2023-04-25T05:57:30;6.40;1.00
51595;DHT22;37677;53.254;6.594;2023-04-25T05:59:56;6.30;1.00
51595;DHT22;37677;53.254;6.594;2023-04-25T06:02:22;6.30;1.00
51595;DHT22;37677;53.254;6.594;2023-04-25T06:04:50;6.30;1.00
51595;DHT22;37677;53.254;6.594;2023-04-25T06:07:17;6.50;5.50
51595;DHT22;37677;53.254;6.594;2023-04-25T06:09:43;6.50;1.00
51595;DHT22;37677;53.254;6.594;2023-04-25T06:12:09;6.60;1.00
51595;DHT22;37677;53.254;6.594;2023-04-25T06:14:34;6.50;1.00
51595;DHT22;37677;53.254;6.594;2023-04-25T06:17:00;6.70;1.00
51595;DHT22;37677;53.254;6.594;2023-04-25T06:19:37;6.60;99.90
51595;DHT22;37677;53.254;6.594;2023-04-25T06:22:02;6.60;99.90
51595;DHT22;37677;53.254;6.594;2023-04-25T06:24:28;7.30;99.90
51595;DHT22;37677;53.254;6.594;2023-04-25T06:26:54;8.00;1.00
51595;DHT22;37677;53.254;6.594;2023-04-25T06:29:20;9.90;99.90
51595;DHT22;37677;53.254;6.594;2023-04-25T06:31:46;10.00;99.90
51595;DHT22;37677;53.254;6.594;2023-04-25T06:34:12;11.30;1.00
51595;DHT22;37677;53.254;6.594;2023-04-25T06:36:38;12.30;34.50
51595;DHT22;37677;53.254;6.594;2023-04-25T06:39:03;13.00;44.00
51595;DHT22;37677;53.254;6.594;2023-04-25T06:41:29;13.60;1.00
51595;DHT22;37677;53.254;6.594;2023-04-25T06:43:55;13.50;99.90
51595;DHT22;37677;53.254;6.594;2023-04-25T06:46:20;12.80;99.90
51595;DHT22;37677;53.254;6.594;2023-04-25T06:48:46;12.40;99.90
51595;DHT22;37677;53.254;6.594;2023-04-25T06:51:12;11.50;99.90
51595;DHT22;37677;53.254;6.594;2023-04-25T06:53:39;11.50;99.90
51595;DHT22;37677;53.254;6.594;2023-04-25T06:56:05;11.10;1.00
51595;DHT22;37677;53.254;6.594;2023-04-25T06:58:31;10.10;99.90
51595;DHT22;37677;53.254;6.594;2023-04-25T07:00:57;9.70;99.90
51595;DHT22;37677;53.254;6.594;2023-04-25T07:03:22;8.70;1.00
51595;DHT22;37677;53.254;6.594;2023-04-25T07:05:49;9.90;1.00
51595;DHT22;37677;53.254;6.594;2023-04-25T07:08:15;10.30;1.00
51595;DHT22;37677;53.254;6.594;2023-04-25T07:10:41;8.20;1.00
51595;DHT22;37677;53.254;6.594;2023-04-25T07:13:07;8.60;1.00
51595;DHT22;37677;53.254;6.594;2023-04-25T07:15:33;9.00;1.00
51595;DHT22;37677;53.254;6.594;2023-04-25T07:17:59;9.20;99.90
51595;DHT22;37677;53.254;6.594;2023-04-25T07:20:25;9.20;99.90
51595;DHT22;37677;53.254;6.594;2023-04-25T07:22:50;9.20;99.90
51595;DHT22;37677;53.254;6.594;2023-04-25T07:25:17;9.20;53.70
51595;DHT22;37677;53.254;6.594;2023-04-25T07:27:42;9.40;25.80
51595;DHT22;37677;53.254;6.594;2023-04-25T07:30:08;9.50;1.00
51595;DHT22;37677;53.254;6.594;2023-04-25T07:32:34;9.50;1.00
51595;DHT22;37677;53.254;6.594;2023-04-25T07:35:00;9.80;1.00
51595;DHT22;37677;53.254;6.594;2023-04-25T07:37:27;9.80;99.90
51595;DHT22;37677;53.254;6.594;2023-04-25T07:39:53;9.20;99.90
51595;DHT22;37677;53.254;6.594;2023-04-25T07:42:18;8.90;99.90
51595;DHT22;37677;53.254;6.594;2023-04-25T07:44:44;8.90;98.40
51595;DHT22;37677;53.254;6.594;2023-04-25T07:47:10;8.80;99.90
51595;DHT22;37677;53.254;6.594;2023-04-25T07:49:36;8.90;99.90
51595;DHT22;37677;53.254;6.594;2023-04-25T07:52:03;8.80;99.90
51595;DHT22;37677;53.254;6.594;2023-04-25T07:54:29;8.80;99.90
51595;DHT22;37677;53.254;6.594;2023-04-25T07:56:55;9.00;5.30
51595;DHT22;37677;53.254;6.594;2023-04-25T07:59:21;10.20;1.00
51595;DHT22;37677;53.254;6.594;2023-04-25T08:01:47;9.90;99.90
51595;DHT22;37677;53.254;6.594;2023-04-25T08:04:13;10.70;99.90
51595;DHT22;37677;53.254;6.594;2023-04-25T08:06:38;11.80;99.90
51595;DHT22;37677;53.254;6.594;2023-04-25T08:09:06;11.60;1.00
51595;DHT22;37677;53.254;6.594;2023-04-25T08:11:33;10.50;99.90
51595;DHT22;37677;53.254;6.594;2023-04-25T08:13:58;9.40;89.90
51595;DHT22;37677;53.254;6.594;2023-04-25T08:16:24;8.00;99.90
51595;DHT22;37677;53.254;6.594;2023-04-25T08:18:50;7.60;99.90
51595;DHT22;37677;53.254;6.594;2023-04-25T08:21:16;7.40;99.90
51595;DHT22;37677;53.254;6.594;2023-04-25T08:23:42;7.20;99.90
51595;DHT22;37677;53.254;6.594;2023-04-25T08:26:07;6.90;1.00
51595;DHT22;37677;53.254;6.594;2023-04-25T08:28:33;7.20;99.90
51595;DHT22;37677;53.254;6.594;2023-04-25T08:30:59;7.30;99.90
51595;DHT22;37677;53.254;6.594;2023-04-25T08:33:25;7.40;99.90
51595;DHT22;37677;53.254;6.594;2023-04-25T08:35:51;7.60;99.90
51595;DHT22;37677;53.254;6.594;2023-04-25T08:38:17;7.80;99.90
51595;DHT22;37677;53.254;6.594;2023-04-25T08:40:43;7.90;99.90
51595;DHT22;37677;53.254;6.594;2023-04-25T08:43:09;10.30;99.90
51595;DHT22;37677;53.254;6.594;2023-04-25T08:45:42;9.00;1.00
51595;DHT22;37677;53.254;6.594;2023-04-25T08:48:11;8.60;1.00
51595;DHT22;37677;53.254;6.594;2023-04-25T08:50:39;9.50;1.00
51595;DHT22;37677;53.254;6.594;2023-04-25T08:55:37;11.60;99.90
51595;DHT22;37677;53.254;6.594;2023-04-25T08:58:05;11.70;1.00
51595;DHT22;37677;53.254;6.594;2023-04-25T09:00:31;12.50;99.90
51595;DHT22;37677;53.254;6.594;2023-04-25T09:02:58;13.50;1.00
51595;DHT22;37677;53.254;6.594;2023-04-25T09:05:24;13.20;99.90
51595;DHT22;37677;53.254;6.594;2023-04-25T09:07:50;13.30;99.90
51595;DHT22;37677;53.254;6.594;2023-04-25T09:10:16;13.70;99.50
51595;DHT22;37677;53.254;6.594;2023-04-25T09:12:41;12.90;99.90
51595;DHT22;37677;53.254;6.594;2023-04-25T09:15:12;12.50;1.00
51595;DHT22;37677;53.254;6.594;2023-04-25T09:17:41;11.60;99.90
51595;DHT22;37677;53.254;6.594;2023-04-25T09:20:11;12.40;99.90
51595;DHT22;37677;53.254;6.594;2023-04-25T09:22:37;13.40;99.90
51595;DHT22;37677;53.254;6.594;2023-04-25T09:25:10;13.40;99.90
51595;DHT22;37677;53.254;6.594;2023-04-25T09:27:37;10.70;41.20
51595;DHT22;37677;53.254;6.594;2023-04-25T09:30:15;11.70;1.00
51595;DHT22;37677;53.254;6.594;2023-04-25T09:32:44;9.50;1.00
51595;DHT22;37677;53.254;6.594;2023-04-25T09:35:11;9.30;99.90
51595;DHT22;37677;53.254;6.594;2023-04-25T09:37:48;9.40;54.00
51595;DHT22;37677;53.254;6.594;2023-04-25T09:40:14;10.60;99.90
51595;DHT22;37677;53.254;6.594;2023-04-25T09:42:41;11.40;99.90
51595;DHT22;37677;53.254;6.594;2023-04-25T09:45:07;12.60;99.90
51595;DHT22;37677;53.254;6.594;2023-04-25T09:47:37;12.70;99.90
51595;DHT22;37677;53.254;6.594;2023-04-25T09:50:14;13.00;99.90
51595;DHT22;37677;53.254;6.594;2023-04-25T09:52:40;12.50;99.90
51595;DHT22;37677;53.254;6.594;2023-04-25T09:55:07;12.70;1.00
51595;DHT22;37677;53.254;6.594;2023-04-25T09:57:33;12.70;1.00
51595;DHT22;37677;53.254;6.594;2023-04-25T10:00:00;12.40;11.30
51595;DHT22;37677;53.254;6.594;2023-04-25T10:02:27;10.80;99.90
51595;DHT22;37677;53.254;6.594;2023-04-25T10:04:54;11.60;1.00
51595;DHT22;37677;53.254;6.594;2023-04-25T10:07:22;11.90;1.00
51595;DHT22;37677;53.254;6.594;2023-04-25T10:10:01;11.70;99.90
51595;DHT22;37677;53.254;6.594;2023-04-25T10:12:30;10.70;99.90
51595;DHT22;37677;53.254;6.594;2023-04-25T10:14:58;8.90;99.90
51595;DHT22;37677;53.254;6.594;2023-04-25T10:19:51;8.00;99.90
51595;DHT22;37677;53.254;6.594;2023-04-25T10:27:22;7.40;99.90
51595;DHT22;37677;53.254;6.594;2023-04-25T10:30:05;8.90;1.00
51595;DHT22;37677;53.254;6.594;2023-04-25T10:32:35;8.20;99.90
51595;DHT22;37677;53.254;6.594;2023-04-25T10:37:37;10.40;99.90
51595;DHT22;37677;53.254;6.594;2023-04-25T10:40:10;11.70;1.90
51595;DHT22;37677;53.254;6.594;2023-04-25T10:47:43;10.00;99.90
51595;DHT22;37677;53.254;6.594;2023-04-25T10:50:10;10.00;99.90
51595;DHT22;37677;53.254;6.594;2023-04-25T10:52:38;9.90;99.90
51595;DHT22;37677;53.254;6.594;2023-04-25T10:55:05;9.60;99.90
51595;DHT22;37677;53.254;6.594;2023-04-25T11:02:37;11.10;99.90
51595;DHT22;37677;53.254;6.594;2023-04-25T11:05:03;12.10;21.50
51595;DHT22;37677;53.254;6.594;2023-04-25T11:07:38;12.50;1.00
51595;DHT22;37677;53.254;6.594;2023-04-25T11:10:06;12.90;1.00
51595;DHT22;37677;53.254;6.594;2023-04-25T11:12:32;13.00;99.90
51595;DHT22;37677;53.254;6.594;2023-04-25T11:15:06;12.50;99.90
51595;DHT22;37677;53.254;6.594;2023-04-25T11:17:33;10.40;99.90
51595;DHT22;37677;53.254;6.594;2023-04-25T11:19:59;11.50;99.90
51595;DHT22;37677;53.254;6.594;2023-04-25T11:22:27;11.80;1.00
51595;DHT22;37677;53.254;6.594;2023-04-25T11:24:53;12.00;1.00
51595;DHT22;37677;53.254;6.594;2023-04-25T11:27:19;12.20;99.90
51595;DHT22;37677;53.254;6.594;2023-04-25T11:29:46;11.90;99.90
51595;DHT22;37677;53.254;6.594;2023-04-25T11:32:15;12.00;99.90
51595;DHT22;37677;53.254;6.594;2023-04-25T11:34:43;11.80;99.90
51595;DHT22;37677;53.254;6.594;2023-04-25T11:37:10;11.70;1.00
51595;DHT22;37677;53.254;6.594;2023-04-25T11:39:37;11.80;1.00
51595;DHT22;37677;53.254;6.594;2023-04-25T11:42:04;13.10;78.00
51595;DHT22;37677;53.254;6.594;2023-04-25T11:44:31;11.50;99.90
51595;DHT22;37677;53.254;6.594;2023-04-25T11:46:57;11.30;99.90
51595;DHT22;37677;53.254;6.594;2023-04-25T11:49:22;10.70;1.00
51595;DHT22;37677;53.254;6.594;2023-04-25T11:51:50;10.90;19.60
51595;DHT22;37677;53.254;6.594;2023-04-25T11:54:16;10.80;1.00
51595;DHT22;37677;53.254;6.594;2023-04-25T11:56:45;10.70;1.00
51595;DHT22;37677;53.254;6.594;2023-04-25T11:59:12;9.10;99.90
51595;DHT22;37677;53.254;6.594;2023-04-25T12:01:40;10.70;99.90
51595;DHT22;37677;53.254;6.594;2023-04-25T12:04:22;11.20;1.00
51595;DHT22;37677;53.254;6.594;2023-04-25T12:06:53;12.10;96.40
51595;DHT22;37677;53.254;6.594;2023-04-25T12:09:32;11.90;1.00
51595;DHT22;37677;53.254;6.594;2023-04-25T12:11:59;11.00;99.90
51595;DHT22;37677;53.254;6.594;2023-04-25T12:14:33;10.70;1.00
51595;DHT22;37677;53.254;6.594;2023-04-25T12:17:00;10.80;42.10
51595;DHT22;37677;53.254;6.594;2023-04-25T12:19:35;10.10;99.90
51595;DHT22;37677;53.254;6.594;2023-04-25T12:22:02;10.90;25.40
51595;DHT22;37677;53.254;6.594;2023-04-25T12:24:34;10.70;99.90
51595;DHT22;37677;53.254;6.594;2023-04-25T12:27:05;10.60;99.90
51595;DHT22;37677;53.254;6.594;2023-04-25T12:29:32;10.60;1.00
51595;DHT22;37677;53.254;6.594;2023-04-25T12:31:59;10.50;99.90
51595;DHT22;37677;53.254;6.594;2023-04-25T12:34:27;10.40;1.00
51595;DHT22;37677;53.254;6.594;2023-04-25T12:36:53;10.90;1.00
51595;DHT22;37677;53.254;6.594;2023-04-25T12:39:23;10.10;99.90
51595;DHT22;37677;53.254;6.594;2023-04-25T12:41:53;10.10;99.90
51595;DHT22;37677;53.254;6.594;2023-04-25T12:44:22;10.20;70.30
51595;DHT22;37677;53.254;6.594;2023-04-25T12:46:48;10.20;99.90
51595;DHT22;37677;53.254;6.594;2023-04-25T12:49:14;10.80;99.90
51595;DHT22;37677;53.254;6.594;2023-04-25T12:51:40;10.80;99.90
51595;DHT22;37677;53.254;6.594;2023-04-25T12:54:07;11.00;1.00
51595;DHT22;37677;53.254;6.594;2023-04-25T12:56:34;11.10;1.00
51595;DHT22;37677;53.254;6.594;2023-04-25T12:59:01;11.40;61.20
51595;DHT22;37677;53.254;6.594;2023-04-25T13:01:28;11.20;1.00
51595;DHT22;37677;53.254;6.594;2023-04-25T13:03:54;10.80;1.00
51595;DHT22;37677;53.254;6.594;2023-04-25T13:06:21;10.60;99.90
51595;DHT22;37677;53.254;6.594;2023-04-25T13:08:47;10.40;99.90
51595;DHT22;37677;53.254;6.594;2023-04-25T13:11:13;10.30;20.90
51595;DHT22;37677;53.254;6.594;2023-04-25T13:13:40;10.30;99.90
51595;DHT22;37677;53.254;6.594;2023-04-25T13:16:07;10.30;99.90
51595;DHT22;37677;53.254;6.594;2023-04-25T13:18:33;10.30;99.90
51595;DHT22;37677;53.254;6.594;2023-04-25T13:20:59;10.50;99.90
51595;DHT22;37677;53.254;6.594;2023-04-25T13:23:26;10.50;99.90
51595;DHT22;37677;53.254;6.594;2023-04-25T13:25:52;10.00;99.90
51595;DHT22;37677;53.254;6.594;2023-04-25T13:28:18;9.70;5.90
51595;DHT22;37677;53.254;6.594;2023-04-25T13:30:45;9.90;99.90
51595;DHT22;37677;53.254;6.594;2023-04-25T13:33:11;10.10;99.90
51595;DHT22;37677;53.254;6.594;2023-04-25T13:35:38;10.60;99.90
51595;DHT22;37677;53.254;6.594;2023-04-25T13:38:04;10.20;1.00
51595;DHT22;37677;53.254;6.594;2023-04-25T13:40:30;10.30;1.00
51595;DHT22;37677;53.254;6.594;2023-04-25T13:42:56;11.50;99.90
51595;DHT22;37677;53.254;6.594;2023-04-25T13:45:21;10.40;99.90
51595;DHT22;37677;53.254;6.594;2023-04-25T13:47:47;9.90;1.00
51595;DHT22;37677;53.254;6.594;2023-04-25T13:50:13;9.50;22.90
51595;DHT22;37677;53.254;6.594;2023-04-25T13:52:39;9.70;1.00
51595;DHT22;37677;53.254;6.594;2023-04-25T13:55:06;11.40;99.90
51595;DHT22;37677;53.254;6.594;2023-04-25T13:57:36;10.00;99.90
51595;DHT22;37677;53.254;6.594;2023-04-25T14:00:03;10.70;99.90
51595;DHT22;37677;53.254;6.594;2023-04-25T14:02:34;10.00;99.90
51595;DHT22;37677;53.254;6.594;2023-04-25T14:05:00;9.90;99.90
51595;DHT22;37677;53.254;6.594;2023-04-25T14:07:26;9.80;99.90
51595;DHT22;37677;53.254;6.594;2023-04-25T14:09:52;9.80;1.00
51595;DHT22;37677;53.254;6.594;2023-04-25T14:12:17;10.50;99.90
51595;DHT22;37677;53.254;6.594;2023-04-25T14:14:43;9.20;99.90
51595;DHT22;37677;53.254;6.594;2023-04-25T14:17:09;9.90;1.00
51595;DHT22;37677;53.254;6.594;2023-04-25T14:22:03;9.90;99.90
51595;DHT22;37677;53.254;6.594;2023-04-25T14:24:28;10.10;1.00
51595;DHT22;37677;53.254;6.594;2023-04-25T14:26:54;10.10;48.70
51595;DHT22;37677;53.254;6.594;2023-04-25T14:29:20;10.00;99.90
51595;DHT22;37677;53.254;6.594;2023-04-25T14:31:45;10.30;99.90
51595;DHT22;37677;53.254;6.594;2023-04-25T14:34:11;9.80;3.10
51595;DHT22;37677;53.254;6.594;2023-04-25T14:36:37;9.60;81.70
51595;DHT22;37677;53.254;6.594;2023-04-25T14:39:03;9.60;99.90
51595;DHT22;37677;53.254;6.594;2023-04-25T14:41:30;9.70;1.00
51595;DHT22;37677;53.254;6.594;2023-04-25T14:43:56;9.70;99.90
51595;DHT22;37677;53.254;6.594;2023-04-25T14:48:51;8.60;99.90
51595;DHT22;37677;53.254;6.594;2023-04-25T14:51:17;9.50;1.00
51595;DHT22;37677;53.254;6.594;2023-04-25T14:53:43;8.50;1.00
51595;DHT22;37677;53.254;6.594;2023-04-25T14:56:08;8.90;1.90
51595;DHT22;37677;53.254;6.594;2023-04-25T14:58:34;9.20;1.00
51595;DHT22;37677;53.254;6.594;2023-04-25T15:01:00;9.40;99.90
51595;DHT22;37677;53.254;6.594;2023-04-25T15:03:27;9.30;99.90
51595;DHT22;37677;53.254;6.594;2023-04-25T15:05:54;9.20;1.00
51595;DHT22;37677;53.254;6.594;2023-04-25T15:08:21;9.00;99.90
51595;DHT22;37677;53.254;6.594;2023-04-25T15:10:46;9.50;99.90
51595;DHT22;37677;53.254;6.594;2023-04-25T15:13:12;9.70;1.00
51595;DHT22;37677;53.254;6.594;2023-04-25T15:15:38;9.40;1.00
51595;DHT22;37677;53.254;6.594;2023-04-25T15:18:04;9.10;99.90
51595;DHT22;37677;53.254;6.594;2023-04-25T15:20:30;9.20;99.90
51595;DHT22;37677;53.254;6.594;2023-04-25T15:22:55;9.60;99.90
51595;DHT22;37677;53.254;6.594;2023-04-25T15:25:21;9.50;83.80
51595;DHT22;37677;53.254;6.594;2023-04-25T15:27:47;9.60;1.00
51595;DHT22;37677;53.254;6.594;2023-04-25T15:30:17;9.30;1.00
51595;DHT22;37677;53.254;6.594;2023-04-25T15:32:44;9.50;1.00
51595;DHT22;37677;53.254;6.594;2023-04-25T15:35:10;8.50;1.00
51595;DHT22;37677;53.254;6.594;2023-04-25T15:37:37;9.10;1.00
51595;DHT22;37677;53.254;6.594;2023-04-25T15:40:08;8.90;1.00
51595;DHT22;37677;53.254;6.594;2023-04-25T15:42:42;9.10;1.00
51595;DHT22;37677;53.254;6.594;2023-04-25T15:45:09;8.90;99.90
51595;DHT22;37677;53.254;6.594;2023-04-25T15:47:37;8.90;99.90
51595;DHT22;37677;53.254;6.594;2023-04-25T15:50:05;8.90;1.00
51595;DHT22;37677;53.254;6.594;2023-04-25T15:52:32;9.20;1.00
51595;DHT22;37677;53.254;6.594;2023-04-25T15:54:58;9.00;1.00
51595;DHT22;37677;53.254;6.594;2023-04-25T15:57:23;8.90;99.90
51595;DHT22;37677;53.254;6.594;2023-04-25T15:59:49;8.70;1.00
51595;DHT22;37677;53.254;6.594;2023-04-25T16:02:16;8.70;99.90
51595;DHT22;37677;53.254;6.594;2023-04-25T16:04:42;9.00;99.90
51595;DHT22;37677;53.254;6.594;2023-04-25T16:07:08;9.10;99.90
51595;DHT22;37677;53.254;6.594;2023-04-25T16:09:35;8.90;99.90
51595;DHT22;37677;53.254;6.594;2023-04-25T16:12:01;9.00;99.90
51595;DHT22;37677;53.254;6.594;2023-04-25T16:14:26;8.90;99.90
51595;DHT22;37677;53.254;6.594;2023-04-25T16:16:52;8.50;1.00
51595;DHT22;37677;53.254;6.594;2023-04-25T16:19:18;8.60;17.40
51595;DHT22;37677;53.254;6.594;2023-04-25T16:21:44;7.70;99.90
51595;DHT22;37677;53.254;6.594;2023-04-25T16:24:10;7.40;1.00
51595;DHT22;37677;53.254;6.594;2023-04-25T16:26:36;8.60;99.90
51595;DHT22;37677;53.254;6.594;2023-04-25T16:29:05;8.40;1.00
51595;DHT22;37677;53.254;6.594;2023-04-25T16:31:32;8.50;85.30
51595;DHT22;37677;53.254;6.594;2023-04-25T16:33:58;8.10;99.90
51595;DHT22;37677;53.254;6.594;2023-04-25T16:36:23;8.20;99.90
51595;DHT22;37677;53.254;6.594;2023-04-25T16:38:49;9.30;99.90
51595;DHT22;37677;53.254;6.594;2023-04-25T16:41:15;8.70;1.00
51595;DHT22;37677;53.254;6.594;2023-04-25T16:43:40;8.90;1.00
51595;DHT22;37677;53.254;6.594;2023-04-25T16:46:06;8.40;95.80
51595;DHT22;37677;53.254;6.594;2023-04-25T16:48:32;8.50;28.00
51595;DHT22;37677;53.254;6.594;2023-04-25T16:50:59;8.50;21.40
51595;DHT22;37677;53.254;6.594;2023-04-25T16:53:25;8.30;1.00
51595;DHT22;37677;53.254;6.594;2023-04-25T16:55:51;8.40;1.00
51595;DHT22;37677;53.254;6.594;2023-04-25T16:58:17;9.70;99.90
51595;DHT22;37677;53.254;6.594;2023-04-25T17:00:42;8.60;99.90
51595;DHT22;37677;53.254;6.594;2023-04-25T17:03:08;9.00;99.90
51595;DHT22;37677;53.254;6.594;2023-04-25T17:05:35;8.80;99.90
51595;DHT22;37677;53.254;6.594;2023-04-25T17:08:00;8.00;1.00
51595;DHT22;37677;53.254;6.594;2023-04-25T17:10:27;9.40;99.90
51595;DHT22;37677;53.254;6.594;2023-04-25T17:12:53;10.40;99.90
51595;DHT22;37677;53.254;6.594;2023-04-25T17:15:20;7.80;29.20
51595;DHT22;37677;53.254;6.594;2023-04-25T17:17:48;9.10;1.00
51595;DHT22;37677;53.254;6.594;2023-04-25T17:20:14;7.50;1.00
51595;DHT22;37677;53.254;6.594;2023-04-25T17:22:40;7.50;99.90
51595;DHT22;37677;53.254;6.594;2023-04-25T17:25:07;7.70;99.90
51595;DHT22;37677;53.254;6.594;2023-04-25T17:27:36;7.50;99.90
51595;DHT22;37677;53.254;6.594;2023-04-25T17:30:04;7.50;1.00
51595;DHT22;37677;53.254;6.594;2023-04-25T17:32:30;7.50;82.60
51595;DHT22;37677;53.254;6.594;2023-04-25T17:34:56;7.70;73.00
51595;DHT22;37677;53.254;6.594;2023-04-25T17:37:22;7.80;99.90
51595;DHT22;37677;53.254;6.594;2023-04-25T17:39:51;7.70;1.00
51595;DHT22;37677;53.254;6.594;2023-04-25T17:42:16;7.80;99.90
51595;DHT22;37677;53.254;6.594;2023-04-25T17:44:42;7.80;99.90
51595;DHT22;37677;53.254;6.594;2023-04-25T17:47:08;7.80;1.00
51595;DHT22;37677;53.254;6.594;2023-04-25T17:49:34;7.70;1.00
51595;DHT22;37677;53.254;6.594;2023-04-25T17:52:00;8.30;1.00
51595;DHT22;37677;53.254;6.594;2023-04-25T17:54:26;7.60;1.00
51595;DHT22;37677;53.254;6.594;2023-04-25T17:56:52;7.30;1.00
51595;DHT22;37677;53.254;6.594;2023-04-25T17:59:19;7.40;99.90